createdAt,value
2022-08-08T00:02:30.690Z,50
2022-08-08T00:05:43.626Z,50
2022-08-08T00:09:01.535Z,51
2022-08-08T00:12:26.894Z,51
2022-08-08T00:15:56.275Z,50
2022-08-08T00:19:17.456Z,50
2022-08-08T00:22:42.772Z,50
2022-08-08T00:26:08.068Z,50
2022-08-08T00:29:44.611Z,50
2022-08-08T00:32:58.684Z,52
2022-08-08T00:36:25.525Z,53
2022-08-08T00:41:05.781Z,54
2022-08-08T00:43:19.510Z,54
2022-08-08T00:46:56.193Z,55
2022-08-08T00:50:05.273Z,55
2022-08-08T00:53:30.570Z,55
2022-08-08T00:56:55.873Z,55
2022-08-08T01:00:22.282Z,57
2022-08-08T01:04:00.499Z,57
2022-08-08T01:07:11.813Z,58
2022-08-08T01:10:37.164Z,58
2022-08-08T01:14:02.468Z,57
2022-08-08T01:17:35.169Z,58
2022-08-08T01:20:53.081Z,58
2022-08-08T01:24:18.386Z,59
2022-08-08T01:27:44.740Z,60
2022-08-08T01:31:10.439Z,61
2022-08-08T01:34:34.322Z,63
2022-08-08T01:37:59.649Z,62
2022-08-08T01:41:24.952Z,62
2022-08-08T01:44:50.509Z,62
2022-08-08T01:48:23.892Z,62
2022-08-08T01:52:03.500Z,62
2022-08-08T01:55:18.044Z,62
2022-08-08T01:58:31.949Z,61
2022-08-08T02:01:59.779Z,60
2022-08-08T02:05:23.332Z,60
2022-08-08T02:08:47.415Z,63
2022-08-08T02:12:12.713Z,62
2022-08-08T02:15:38.406Z,62
2022-08-08T02:19:09.977Z,62
2022-08-08T02:22:31.229Z,62
2022-08-08T02:25:56.273Z,63
2022-08-08T02:29:19.171Z,63
2022-08-08T02:32:44.581Z,63
2022-08-08T02:36:12.496Z,64
2022-08-08T02:39:41.459Z,64
2022-08-08T02:43:00.737Z,63
2022-08-08T02:46:25.581Z,63
2022-08-08T02:49:51.801Z,62
2022-08-08T02:53:16.188Z,63
2022-08-08T02:56:41.487Z,63
2022-08-08T03:00:27.407Z,64
2022-08-08T03:03:46.449Z,64
2022-08-08T03:06:57.391Z,63
2022-08-08T03:10:31.830Z,62
2022-08-08T03:15:55.056Z,64
2022-08-08T03:17:13.281Z,63
2022-08-08T03:20:38.567Z,64
2022-08-08T03:24:03.853Z,64
2022-08-08T03:27:29.147Z,63
2022-08-08T03:31:07.760Z,64
2022-08-08T03:34:21.006Z,65
2022-08-08T03:38:00.458Z,64
2022-08-08T03:42:04.239Z,65
2022-08-08T03:44:38.532Z,64
2022-08-08T03:48:02.161Z,65
2022-08-08T03:51:40.686Z,65
2022-08-08T03:55:02.795Z,64
2022-08-08T03:58:32.767Z,65
2022-08-08T04:02:12.295Z,66
2022-08-08T04:05:09.973Z,65
2022-08-08T04:08:34.483Z,66
2022-08-08T04:12:00.717Z,66
2022-08-08T04:15:24.479Z,66
2022-08-08T04:18:49.750Z,67
2022-08-08T04:22:16.670Z,67
2022-08-08T04:25:40.291Z,67
2022-08-08T04:29:05.611Z,64
2022-08-08T04:32:33.950Z,67
2022-08-08T04:35:56.213Z,67
2022-08-08T04:39:48.446Z,66
2022-08-08T04:42:55.963Z,68
2022-08-08T04:46:12.050Z,67
2022-08-08T04:49:59.211Z,66
2022-08-08T04:53:05.324Z,67
2022-08-08T04:56:27.945Z,69
2022-08-08T04:59:53.245Z,67
2022-08-08T05:04:08.872Z,67
2022-08-08T05:06:43.911Z,67
2022-08-08T05:10:12.426Z,67
2022-08-08T05:13:34.412Z,66
2022-08-08T05:17:00.698Z,68
2022-08-08T05:20:24.983Z,66
2022-08-08T05:23:50.267Z,66
2022-08-08T05:27:15.560Z,65
2022-08-08T05:30:40.866Z,66
2022-08-08T05:34:06.161Z,66
2022-08-08T05:37:39.349Z,65
2022-08-08T05:40:57.977Z,65
2022-08-08T05:44:22.071Z,65
2022-08-08T05:47:52.949Z,65
2022-08-08T05:51:12.760Z,65
2022-08-08T05:54:43.423Z,62
2022-08-08T05:58:04.679Z,61
2022-08-08T06:01:50.938Z,59
2022-08-08T06:04:54.778Z,57
2022-08-08T06:08:28.815Z,56
2022-08-08T06:11:45.804Z,56
2022-08-08T06:15:09.607Z,55
2022-08-08T06:18:34.897Z,56
2022-08-08T06:22:00.453Z,54
2022-08-08T06:25:33.572Z,55
2022-08-08T06:28:54.138Z,52
2022-08-08T06:32:17.231Z,52
2022-08-08T06:36:05.133Z,52
2022-08-08T06:39:06.802Z,52
2022-08-08T06:42:31.850Z,53
2022-08-08T06:45:57.163Z,51
2022-08-08T06:49:54.635Z,52
2022-08-08T06:52:50.339Z,50
2022-08-08T06:56:16.482Z,50
2022-08-08T07:00:09.884Z,52
2022-08-08T07:03:04.783Z,51
2022-08-08T07:06:29.023Z,51
2022-08-08T07:09:56.730Z,51
2022-08-08T07:13:19.611Z,50
2022-08-08T07:16:51.387Z,50
2022-08-08T07:20:11.286Z,50
2022-08-08T07:23:57.779Z,50
2022-08-08T07:27:04.997Z,50
2022-08-08T07:30:26.537Z,49
2022-08-08T07:33:53.630Z,48
2022-08-08T07:37:16.753Z,49
2022-08-08T07:40:42.088Z,49
2022-08-08T07:44:10.533Z,49
2022-08-08T07:47:38.646Z,48
2022-08-08T07:50:58.248Z,48
2022-08-08T07:54:24.250Z,48
2022-08-08T07:57:49.044Z,47
2022-08-08T08:01:14.237Z,47
2022-08-08T08:04:39.985Z,46
2022-08-08T08:08:04.727Z,46
2022-08-08T08:11:33.765Z,46
2022-08-08T08:14:55.635Z,45
2022-08-08T08:18:27.415Z,44
2022-08-08T08:21:53.444Z,45
2022-08-08T08:25:11.309Z,44
2022-08-08T08:28:36.665Z,44
2022-08-08T08:32:03.473Z,45
2022-08-08T08:35:29.660Z,45
2022-08-08T08:38:52.711Z,43
2022-08-08T08:42:19.230Z,44
2022-08-08T08:45:43.375Z,42
2022-08-08T08:49:08.707Z,43
2022-08-08T08:52:34.038Z,43
2022-08-08T08:56:01.149Z,44
2022-08-08T08:59:30.697Z,44
2022-08-08T09:02:50.188Z,43
2022-08-08T09:06:19.357Z,44
2022-08-08T09:09:47.593Z,43
2022-08-08T09:13:06.225Z,43
2022-08-08T09:16:32.754Z,43
2022-08-08T09:21:55.244Z,43
2022-08-08T09:23:25.613Z,44
2022-08-08T09:26:49.949Z,44
2022-08-08T09:30:14.479Z,45
2022-08-08T09:33:55.238Z,43
2022-08-08T09:37:29.021Z,43
2022-08-08T09:40:41.849Z,42
2022-08-08T09:44:05.968Z,43
2022-08-08T09:47:25.651Z,41
2022-08-08T09:50:50.104Z,41
2022-08-08T09:54:15.494Z,40
2022-08-08T09:57:45.926Z,41
2022-08-08T10:01:01.485Z,40
2022-08-08T10:04:38.633Z,40
2022-08-08T10:07:52.178Z,41
2022-08-08T10:12:23.290Z,40
2022-08-08T10:14:42.830Z,39
2022-08-08T10:18:10.333Z,39
2022-08-08T10:21:33.532Z,40
2022-08-08T10:25:00.017Z,39
2022-08-08T10:28:25.611Z,38
2022-08-08T10:31:49.623Z,39
2022-08-08T10:35:20.670Z,39
2022-08-08T10:38:40.441Z,39
2022-08-08T10:42:14.602Z,38
2022-08-08T10:45:38.785Z,38
2022-08-08T10:48:58.771Z,38
2022-08-08T10:52:25.656Z,38
2022-08-08T10:55:47.359Z,38
2022-08-08T10:59:14.396Z,38
2022-08-08T11:02:38.247Z,37
2022-08-08T11:06:03.696Z,38
2022-08-08T11:09:32.079Z,37
2022-08-08T11:13:12.420Z,37
2022-08-08T11:16:32.110Z,36
2022-08-08T11:19:52.615Z,37
2022-08-08T11:23:12.057Z,37
2022-08-08T11:26:38.233Z,37
2022-08-08T11:30:18.844Z,36
2022-08-08T11:33:52.142Z,37
2022-08-08T11:36:55.868Z,36
2022-08-08T11:40:22.421Z,37
2022-08-08T11:43:45.432Z,37
2022-08-08T11:47:12.689Z,38
2022-08-08T11:50:36.097Z,36
2022-08-08T11:54:02.352Z,36
2022-08-08T11:57:27.892Z,35
2022-08-08T12:00:52.063Z,36
2022-08-08T12:04:17.376Z,36
2022-08-08T12:07:42.687Z,36
2022-08-08T12:11:08.023Z,36
2022-08-08T12:14:33.356Z,37
2022-08-08T12:18:00.069Z,35
2022-08-08T12:21:25.588Z,36
2022-08-08T12:24:51.639Z,36
2022-08-08T12:28:15.548Z,36
2022-08-08T12:31:53.443Z,36
2022-08-08T12:35:17.850Z,36
2022-08-08T12:38:31.153Z,36
2022-08-08T12:41:57.618Z,36
2022-08-08T12:45:55.053Z,37
2022-08-08T12:48:59.812Z,36
2022-08-08T12:52:14.310Z,36
2022-08-08T12:56:04.192Z,36
2022-08-08T12:59:02.717Z,35
2022-08-08T13:02:28.941Z,36
2022-08-08T13:06:02.762Z,35
2022-08-08T13:09:18.725Z,36
2022-08-08T13:12:46.794Z,36
2022-08-08T13:16:09.455Z,36
2022-08-08T13:19:41.067Z,36
2022-08-08T13:23:31.527Z,36
2022-08-08T13:26:25.646Z,35
2022-08-08T13:29:50.975Z,36
2022-08-08T13:33:18.509Z,35
2022-08-08T13:36:41.757Z,38
2022-08-08T13:40:07.115Z,36
2022-08-08T13:43:32.511Z,36
2022-08-08T13:46:57.903Z,37
2022-08-08T13:50:34.532Z,35
2022-08-08T13:53:53.090Z,36
2022-08-08T13:57:14.032Z,37
2022-08-08T14:00:39.345Z,36
2022-08-08T14:04:04.831Z,36
2022-08-08T14:07:30.523Z,37
2022-08-08T14:10:55.554Z,36
2022-08-08T14:14:26.384Z,36
2022-08-08T14:17:58.741Z,37
2022-08-08T14:21:12.850Z,37
2022-08-08T14:24:37.046Z,36
2022-08-08T14:28:02.467Z,37
2022-08-08T15:08:53.144Z,38
2022-08-08T15:12:15.328Z,37
2022-08-08T15:16:02.277Z,37
2022-08-08T15:19:27.719Z,37
2022-08-08T15:22:49.959Z,38
2022-08-08T15:26:15.561Z,37
2022-08-08T15:29:41.082Z,37
2022-08-08T15:33:06.627Z,38
2022-08-08T15:36:32.192Z,38
2022-08-08T15:39:57.686Z,38
2022-08-08T15:43:35.512Z,37
2022-08-08T15:46:50.452Z,37
2022-08-08T15:50:20.546Z,38
2022-08-08T15:53:40.468Z,38
2022-08-08T15:57:07.454Z,37
2022-08-08T16:00:30.899Z,38
2022-08-08T16:03:56.465Z,38
2022-08-08T16:07:22.006Z,38
2022-08-08T16:13:06.271Z,38
2022-08-08T16:14:15.964Z,38
2022-08-08T16:17:57.970Z,38
2022-08-08T16:21:05.978Z,38
2022-08-08T16:24:30.731Z,38
2022-08-08T16:27:57.100Z,39
2022-08-08T16:31:21.462Z,38
2022-08-08T16:34:46.861Z,38
2022-08-08T16:38:16.355Z,39
2022-08-08T16:41:37.626Z,39
2022-08-08T16:45:11.226Z,39
2022-08-08T16:48:32.187Z,38
2022-08-08T16:54:59.206Z,38
2022-08-08T16:55:34.462Z,39
2022-08-08T16:58:44.827Z,39
2022-08-08T17:02:12.545Z,39
2022-08-08T17:05:42.552Z,39
2022-08-08T17:09:00.781Z,39
2022-08-08T17:12:28.499Z,39
2022-08-08T17:15:52.697Z,39
2022-08-08T17:19:16.842Z,39
2022-08-08T17:22:42.745Z,39
2022-08-08T17:26:07.544Z,39
2022-08-08T17:29:33.381Z,39
2022-08-08T17:34:38.387Z,39
2022-08-08T17:36:28.725Z,40
2022-08-08T17:40:05.230Z,40
2022-08-08T17:43:14.340Z,40
2022-08-08T17:46:39.709Z,40
2022-08-08T17:50:05.043Z,40
2022-08-08T17:53:31.218Z,40
2022-08-08T17:56:55.716Z,40
2022-08-08T18:00:21.711Z,40
2022-08-08T18:03:48.789Z,40
2022-08-08T18:08:01.620Z,40
2022-08-08T18:10:37.941Z,41
2022-08-08T18:14:03.325Z,41
2022-08-08T18:18:05.843Z,41
2022-08-08T18:20:55.182Z,41
2022-08-08T18:24:21.308Z,41
2022-08-08T18:27:45.029Z,42
2022-08-08T18:31:09.950Z,42
2022-08-08T18:34:35.284Z,42
2022-08-08T18:38:00.593Z,44
2022-08-08T18:41:45.772Z,43
2022-08-08T18:44:53.131Z,43
2022-08-08T18:48:18.306Z,43
2022-08-08T18:51:53.757Z,43
2022-08-08T18:55:43.947Z,43
2022-08-08T18:59:09.852Z,43
2022-08-08T19:02:48.280Z,45
2022-08-08T19:06:08.132Z,44
2022-08-08T19:09:48.724Z,44
2022-08-08T19:12:58.799Z,44
2022-08-08T19:16:28.289Z,45
2022-08-08T19:20:02.016Z,45
2022-08-08T19:23:14.772Z,45
2022-08-08T19:26:40.073Z,45
2022-08-08T19:30:06.135Z,46
2022-08-08T19:33:39.863Z,46
2022-08-08T19:36:58.386Z,46
2022-08-08T19:40:21.899Z,46
2022-08-08T19:44:03.639Z,47
2022-08-08T19:47:12.166Z,48
2022-08-08T19:50:37.518Z,48
2022-08-08T19:54:02.825Z,47
2022-08-08T19:57:28.460Z,47
2022-08-08T20:00:53.528Z,48
2022-08-08T20:04:18.878Z,48
2022-08-08T20:08:27.343Z,48
2022-08-08T20:11:09.937Z,48
2022-08-08T20:14:35.834Z,48
2022-08-08T20:18:00.045Z,50
2022-08-08T20:21:25.986Z,51
2022-08-08T20:24:50.653Z,50
2022-08-08T20:28:18.840Z,50
2022-08-08T20:31:47.434Z,51
2022-08-08T20:35:06.556Z,52
2022-08-08T20:38:31.993Z,51
2022-08-08T20:41:57.129Z,51
2022-08-08T20:45:34.324Z,51
2022-08-08T20:48:47.766Z,53
2022-08-08T20:52:13.078Z,55
2022-08-08T20:55:42.496Z,54
2022-08-08T20:59:05.810Z,52
2022-08-08T21:02:29.097Z,52
2022-08-08T21:05:58.681Z,52
2022-08-08T21:09:19.640Z,52
2022-08-08T21:12:46.174Z,53
2022-08-08T21:16:18.032Z,53
2022-08-08T21:19:44.596Z,55
2022-08-08T21:23:00.864Z,54
2022-08-08T21:26:27.115Z,54
2022-08-08T21:30:03.222Z,54
2022-08-08T21:33:16.839Z,55
2022-08-08T21:36:42.123Z,55
2022-08-08T21:40:07.436Z,55
2022-08-08T21:43:33.819Z,55
2022-08-08T21:48:03.512Z,55
2022-08-08T21:50:23.315Z,56
2022-08-08T21:54:19.794Z,56
2022-08-08T21:57:13.905Z,56
2022-08-08T22:00:40.784Z,58
2022-08-08T22:04:04.433Z,58
2022-08-08T22:07:34.524Z,57
2022-08-08T22:10:54.908Z,57
2022-08-08T22:14:20.163Z,57
2022-08-08T22:17:45.932Z,57
2022-08-08T22:21:14.741Z,59
2022-08-08T22:24:35.923Z,58
2022-08-08T22:28:03.060Z,57
2022-08-08T22:31:26.513Z,59
2022-08-08T22:34:51.755Z,58
2022-08-08T22:38:17.427Z,57
2022-08-08T22:41:42.229Z,59
2022-08-08T22:45:09.371Z,59
2022-08-08T22:48:32.727Z,60
2022-08-08T22:51:57.971Z,57
2022-08-08T22:55:23.293Z,59
2022-08-08T22:58:51.159Z,58
2022-08-08T23:02:13.799Z,58
2022-08-08T23:05:49.842Z,58
2022-08-08T23:09:09.459Z,58
2022-08-08T23:12:40.748Z,58
2022-08-08T23:16:37.358Z,59
2022-08-08T23:19:19.995Z,58
2022-08-08T23:22:45.274Z,59
2022-08-08T23:26:11.310Z,60
2022-08-08T23:29:35.767Z,59
2022-08-08T23:33:01.009Z,60
2022-08-08T23:36:26.463Z,61
2022-08-08T23:39:55.269Z,61
2022-08-08T23:43:16.719Z,62
2022-08-08T23:48:58.887Z,61
2022-08-08T23:50:07.192Z,61
2022-08-08T23:53:56.160Z,60
2022-08-08T23:56:57.705Z,62
